createdAt,value
2018-10-05T00:02:19.337Z,37.67
2018-10-05T00:04:47.375Z,39.33
2018-10-05T00:07:15.498Z,47.60
2018-10-05T00:09:43.573Z,55.33
2018-10-05T00:12:11.627Z,63.57
2018-10-05T00:14:39.656Z,66.40
2018-10-05T00:17:07.895Z,66.17
2018-10-05T00:19:35.970Z,63.80
2018-10-05T00:22:04.162Z,39.60
2018-10-05T00:24:32.237Z,52.87
2018-10-05T00:27:00.359Z,44.80
2018-10-05T00:29:28.422Z,12.40
2018-10-05T00:31:56.502Z,13.17
2018-10-05T00:34:24.544Z,11.73
2018-10-05T00:36:52.613Z,19.07
2018-10-05T00:39:20.685Z,18.07
2018-10-05T00:41:48.778Z,15.70
2018-10-05T00:44:16.828Z,14.50
2018-10-05T00:46:44.872Z,8.30
2018-10-05T00:49:12.968Z,13.00
2018-10-05T00:51:41.094Z,10.93
2018-10-05T00:54:09.206Z,11.83
2018-10-05T00:56:37.283Z,10.83
2018-10-05T00:59:05.485Z,11.73
2018-10-05T01:01:33.572Z,10.23
2018-10-05T01:04:01.722Z,10.97
2018-10-05T01:06:29.845Z,9.67
2018-10-05T01:08:57.905Z,10.47
2018-10-05T01:11:25.994Z,10.53
2018-10-05T01:13:53.974Z,9.77
2018-10-05T01:16:22.104Z,9.73
2018-10-05T01:18:50.162Z,10.00
2018-10-05T01:21:18.252Z,9.67
2018-10-05T01:23:46.397Z,10.33
2018-10-05T01:26:14.461Z,10.40
2018-10-05T01:28:42.484Z,9.97
2018-10-05T01:31:10.514Z,8.73
2018-10-05T01:33:38.545Z,10.10
2018-10-05T01:36:06.607Z,9.47
2018-10-05T01:38:34.750Z,9.70
2018-10-05T01:41:02.818Z,8.73
2018-10-05T01:43:30.951Z,8.77
2018-10-05T01:45:59.118Z,10.13
2018-10-05T01:48:27.162Z,9.50
2018-10-05T01:50:55.228Z,10.43
2018-10-05T01:53:23.291Z,10.80
2018-10-05T01:55:51.298Z,7.20
2018-10-05T01:58:19.333Z,6.90
2018-10-05T02:00:47.361Z,6.07
2018-10-05T02:03:15.405Z,6.47
2018-10-05T02:05:43.424Z,6.57
2018-10-05T02:08:11.473Z,5.83
2018-10-05T02:10:39.494Z,6.10
2018-10-05T02:13:07.557Z,6.20
2018-10-05T02:15:35.713Z,5.87
2018-10-05T02:18:03.930Z,6.80
2018-10-05T02:20:31.951Z,5.80
2018-10-05T02:22:59.990Z,6.27
2018-10-05T02:25:28.065Z,6.20
2018-10-05T02:27:56.123Z,5.80
2018-10-05T02:30:24.125Z,6.03
2018-10-05T02:32:52.204Z,7.83
2018-10-05T02:35:20.240Z,7.90
2018-10-05T02:37:48.276Z,8.80
2018-10-05T02:40:16.318Z,8.90
2018-10-05T02:42:44.409Z,8.07
2018-10-05T02:45:12.494Z,9.20
2018-10-05T02:47:40.566Z,9.17
2018-10-05T02:50:08.621Z,7.97
2018-10-05T02:52:36.758Z,6.37
2018-10-05T02:55:05.100Z,5.17
2018-10-05T02:57:33.130Z,6.50
2018-10-05T03:00:01.255Z,5.30
2018-10-05T03:02:29.784Z,6.03
2018-10-05T03:04:57.891Z,5.60
2018-10-05T03:07:25.921Z,5.30
2018-10-05T03:09:53.993Z,5.57
2018-10-05T03:12:22.078Z,4.87
2018-10-05T03:14:50.121Z,5.10
2018-10-05T03:17:18.138Z,4.50
2018-10-05T03:19:46.254Z,4.50
2018-10-05T03:22:14.273Z,8.40
2018-10-05T03:24:42.358Z,9.10
2018-10-05T03:27:10.433Z,9.40
2018-10-05T03:29:38.457Z,7.87
2018-10-05T03:32:06.793Z,9.20
2018-10-05T03:34:34.856Z,5.13
2018-10-05T03:37:02.909Z,5.77
2018-10-05T03:39:30.949Z,9.03
2018-10-05T03:41:58.993Z,9.20
2018-10-05T03:44:27.073Z,7.23
2018-10-05T03:46:55.171Z,9.20
2018-10-05T03:49:23.185Z,9.57
2018-10-05T03:51:51.245Z,10.30
2018-10-05T03:54:19.304Z,12.20
2018-10-05T03:56:47.376Z,10.80
2018-10-05T03:59:15.465Z,11.33
2018-10-05T04:01:43.530Z,12.78
2018-10-05T04:04:11.556Z,10.47
2018-10-05T04:06:39.590Z,13.20
2018-10-05T04:09:08.145Z,13.70
2018-10-05T04:11:36.182Z,11.40
2018-10-05T04:14:04.409Z,12.00
2018-10-05T04:16:32.562Z,13.30
2018-10-05T04:19:00.658Z,11.67
2018-10-05T04:21:28.821Z,7.30
2018-10-05T04:23:56.866Z,14.67
2018-10-05T04:26:24.949Z,15.43
2018-10-05T04:28:53.063Z,10.83
2018-10-05T04:31:21.106Z,16.43
2018-10-05T04:33:49.153Z,21.52
2018-10-05T04:36:17.213Z,20.88
2018-10-05T04:38:45.259Z,16.70
2018-10-05T04:41:13.393Z,12.10
2018-10-05T04:43:41.550Z,7.35
2018-10-05T04:46:09.593Z,6.63
2018-10-05T04:48:37.653Z,14.73
2018-10-05T04:51:05.757Z,14.47
2018-10-05T04:53:33.850Z,7.70
2018-10-05T04:56:02.086Z,6.87
2018-10-05T04:58:30.594Z,6.00
2018-10-05T05:00:58.781Z,5.93
2018-10-05T05:03:26.841Z,7.07
2018-10-05T05:05:54.900Z,7.33
2018-10-05T05:08:23.112Z,6.13
2018-10-05T05:10:51.145Z,5.50
2018-10-05T05:13:19.209Z,6.27
2018-10-05T05:15:47.254Z,5.63
2018-10-05T05:18:15.452Z,7.33
2018-10-05T05:20:43.516Z,5.10
2018-10-05T05:23:11.584Z,5.42
2018-10-05T05:25:39.883Z,10.67
2018-10-05T05:28:07.989Z,5.90
2018-10-05T05:30:36.114Z,6.33
2018-10-05T05:33:04.651Z,5.13
2018-10-05T05:35:32.860Z,6.63
2018-10-05T05:38:00.892Z,6.15
2018-10-05T05:40:28.966Z,6.90
2018-10-05T05:42:57.029Z,9.03
2018-10-05T05:45:25.240Z,10.18
2018-10-05T05:47:53.271Z,9.27
2018-10-05T05:50:21.329Z,8.83
2018-10-05T05:52:49.518Z,9.50
2018-10-05T05:55:18.321Z,8.90
2018-10-05T05:57:46.357Z,8.80
2018-10-05T06:00:14.485Z,9.10
2018-10-05T06:02:42.633Z,9.97
2018-10-05T06:05:10.677Z,10.33
2018-10-05T06:07:38.707Z,9.57
2018-10-05T06:10:07.020Z,10.23
2018-10-05T06:12:35.201Z,9.40
2018-10-05T06:15:03.319Z,10.43
2018-10-05T06:17:31.454Z,10.47
2018-10-05T06:19:59.510Z,8.83
2018-10-05T06:22:27.782Z,10.30
2018-10-05T06:24:55.696Z,9.77
2018-10-05T06:27:23.821Z,7.90
2018-10-05T06:29:51.840Z,6.43
2018-10-05T06:32:19.892Z,10.17
2018-10-05T06:34:47.992Z,9.57
2018-10-05T06:37:16.034Z,9.30
2018-10-05T06:39:44.438Z,10.13
2018-10-05T06:42:12.829Z,7.27
2018-10-05T06:44:40.786Z,8.95
2018-10-05T06:47:08.852Z,9.77
2018-10-05T06:49:36.975Z,8.80
2018-10-05T06:52:05.108Z,8.73
2018-10-05T06:54:33.193Z,8.60
2018-10-05T06:57:01.245Z,9.40
2018-10-05T06:59:29.308Z,9.03
2018-10-05T07:01:57.398Z,9.80
2018-10-05T07:04:25.446Z,8.53
2018-10-05T07:06:53.485Z,9.57
2018-10-05T07:09:21.581Z,8.13
2018-10-05T07:11:49.628Z,7.67
2018-10-05T07:14:17.704Z,7.53
2018-10-05T07:16:45.762Z,8.77
2018-10-05T07:19:13.817Z,7.90
2018-10-05T07:21:41.944Z,6.03
2018-10-05T07:24:09.988Z,6.77
2018-10-05T07:26:38.042Z,5.83
2018-10-05T07:29:06.123Z,8.23
2018-10-05T07:31:34.206Z,8.43
2018-10-05T07:34:02.329Z,4.77
2018-10-05T07:36:30.361Z,7.22
2018-10-05T07:38:58.572Z,7.47
2018-10-05T07:41:26.619Z,7.33
2018-10-05T07:43:54.813Z,7.20
2018-10-05T07:46:22.964Z,7.23
2018-10-05T07:48:51.047Z,7.37
2018-10-05T07:51:19.163Z,7.97
2018-10-05T07:53:48.781Z,9.30
2018-10-05T07:56:16.852Z,8.00
2018-10-05T07:58:44.899Z,8.60
2018-10-05T08:01:12.934Z,8.43
2018-10-05T08:03:41.005Z,8.43
2018-10-05T08:06:09.108Z,7.57
2018-10-05T08:08:38.175Z,7.43
2018-10-05T08:11:06.810Z,7.37
2018-10-05T08:13:34.880Z,6.80
2018-10-05T08:16:03.113Z,7.87
2018-10-05T08:18:31.168Z,7.30
2018-10-05T08:20:59.253Z,6.93
2018-10-05T08:23:27.270Z,7.20
2018-10-05T08:26:01.975Z,6.57
2018-10-05T08:28:30.078Z,5.97
2018-10-05T08:30:58.178Z,8.18
2018-10-05T08:33:26.281Z,7.17
2018-10-05T08:35:54.415Z,5.70
2018-10-05T08:38:22.455Z,6.47
2018-10-05T08:40:50.617Z,6.20
2018-10-05T08:43:18.618Z,6.20
2018-10-05T08:45:46.712Z,6.30
2018-10-05T08:48:14.752Z,5.23
2018-10-05T08:50:42.835Z,5.47
2018-10-05T08:53:10.891Z,6.07
2018-10-05T08:55:38.928Z,5.50
2018-10-05T08:58:06.982Z,5.83
2018-10-05T09:00:35.184Z,6.00
2018-10-05T09:03:03.142Z,5.70
2018-10-05T09:05:31.228Z,5.17
2018-10-05T09:07:59.307Z,5.77
2018-10-05T09:10:27.394Z,4.80
2018-10-05T09:12:55.459Z,5.33
2018-10-05T09:15:23.573Z,5.00
2018-10-05T09:17:51.804Z,4.80
2018-10-05T09:20:19.757Z,4.93
2018-10-05T09:22:47.808Z,4.93
2018-10-05T09:25:15.846Z,5.40
2018-10-05T09:27:43.901Z,4.83
2018-10-05T09:30:11.937Z,4.17
2018-10-05T09:32:40.071Z,4.70
2018-10-05T09:35:08.165Z,5.50
2018-10-05T09:37:36.271Z,4.17
2018-10-05T09:40:04.285Z,4.83
2018-10-05T09:42:32.500Z,4.47
2018-10-05T09:45:00.819Z,4.70
2018-10-05T09:47:28.781Z,4.73
2018-10-05T09:49:56.840Z,4.87
2018-10-05T09:52:25.013Z,4.47
2018-10-05T09:54:52.977Z,4.40
2018-10-05T09:57:21.009Z,4.13
2018-10-05T09:59:49.147Z,5.10
2018-10-05T10:02:17.184Z,4.57
2018-10-05T10:04:45.318Z,4.53
2018-10-05T10:07:13.374Z,4.43
2018-10-05T10:09:41.609Z,3.63
2018-10-05T10:12:09.636Z,4.37
2018-10-05T10:14:37.750Z,4.20
2018-10-05T10:17:05.805Z,3.97
2018-10-05T10:19:33.873Z,3.67
2018-10-05T10:22:01.910Z,3.40
2018-10-05T10:24:29.960Z,4.23
2018-10-05T10:26:58.174Z,3.70
2018-10-05T10:29:26.233Z,3.63
2018-10-05T10:31:54.417Z,3.97
2018-10-05T10:34:22.517Z,4.50
2018-10-05T10:36:50.765Z,4.33
2018-10-05T10:39:18.814Z,4.43
2018-10-05T10:41:46.885Z,4.50
2018-10-05T10:44:14.940Z,5.07
2018-10-05T10:46:43.004Z,5.00
2018-10-05T10:49:11.054Z,5.10
2018-10-05T10:51:39.154Z,4.40
2018-10-05T10:54:07.268Z,6.00
2018-10-05T10:56:35.535Z,5.90
2018-10-05T10:59:03.597Z,5.90
2018-10-05T11:01:31.772Z,6.40
2018-10-05T11:03:59.863Z,4.90
2018-10-05T11:06:27.893Z,5.20
2018-10-05T11:08:56.127Z,4.97
2018-10-05T11:11:24.229Z,4.50
2018-10-05T11:13:52.271Z,4.53
2018-10-05T11:16:20.326Z,4.57
2018-10-05T11:18:48.397Z,4.80
2018-10-05T11:21:16.482Z,4.90
2018-10-05T11:23:44.558Z,4.63
2018-10-05T11:26:12.642Z,4.70
2018-10-05T11:28:40.696Z,4.47
2018-10-05T11:31:08.773Z,5.20
2018-10-05T11:33:36.828Z,4.53
2018-10-05T11:36:04.905Z,4.80
2018-10-05T11:38:33.039Z,5.23
2018-10-05T11:41:01.270Z,4.20
2018-10-05T11:43:29.337Z,4.27
2018-10-05T11:45:57.405Z,3.97
2018-10-05T11:48:25.531Z,3.87
2018-10-05T11:50:53.557Z,4.70
2018-10-05T11:53:21.704Z,3.63
2018-10-05T11:55:49.759Z,3.90
2018-10-05T11:58:17.789Z,3.77
2018-10-05T12:00:45.869Z,3.80
2018-10-05T12:03:13.927Z,4.10
2018-10-05T12:05:42.161Z,3.57
2018-10-05T12:08:10.212Z,3.53
2018-10-05T12:10:38.344Z,3.17
2018-10-05T12:13:06.514Z,3.10
2018-10-05T12:15:34.528Z,3.33
2018-10-05T12:18:02.585Z,2.93
2018-10-05T12:20:30.705Z,3.97
2018-10-05T12:22:58.784Z,3.10
2018-10-05T12:25:26.835Z,3.40
2018-10-05T12:27:54.884Z,3.13
2018-10-05T12:30:23.128Z,2.77
2018-10-05T12:32:51.121Z,2.60
2018-10-05T12:35:19.257Z,3.13
2018-10-05T12:37:47.366Z,2.77
2018-10-05T12:40:15.437Z,3.50
2018-10-05T12:42:43.491Z,3.60
2018-10-05T12:45:11.647Z,2.90
2018-10-05T12:47:39.685Z,3.40
2018-10-05T12:50:07.799Z,2.90
2018-10-05T12:52:35.803Z,2.90
2018-10-05T12:55:04.161Z,2.90
2018-10-05T12:57:32.398Z,3.23
2018-10-05T13:00:00.840Z,3.43
2018-10-05T13:02:29.221Z,3.13
2018-10-05T13:04:57.545Z,3.30
2018-10-05T13:07:25.857Z,2.77
2018-10-05T13:09:53.976Z,2.87
2018-10-05T13:12:22.234Z,2.80
2018-10-05T13:14:50.319Z,3.10
2018-10-05T13:17:18.482Z,2.30
2018-10-05T13:19:46.520Z,2.90
2018-10-05T13:22:14.574Z,2.93
2018-10-05T13:24:42.738Z,2.70
2018-10-05T13:27:10.891Z,2.83
2018-10-05T13:29:38.977Z,2.27
2018-10-05T13:32:07.023Z,2.60
2018-10-05T13:34:35.061Z,2.23
2018-10-05T13:37:03.117Z,2.33
2018-10-05T13:39:31.148Z,2.40
2018-10-05T13:41:59.411Z,2.90
2018-10-05T13:44:27.509Z,2.80
2018-10-05T13:46:55.628Z,2.87
2018-10-05T13:49:23.687Z,2.87
2018-10-05T13:51:51.779Z,3.17
2018-10-05T13:54:19.885Z,3.20
2018-10-05T13:56:47.989Z,2.60
2018-10-05T13:59:16.140Z,2.53
2018-10-05T14:01:44.223Z,3.73
2018-10-05T14:04:12.542Z,2.63
2018-10-05T14:06:40.606Z,3.30
2018-10-05T14:09:08.773Z,2.73
2018-10-05T14:11:36.889Z,2.60
2018-10-05T14:14:05.062Z,2.63
2018-10-05T14:16:33.176Z,2.77
2018-10-05T14:19:01.329Z,2.67
2018-10-05T14:21:29.478Z,2.50
2018-10-05T14:23:57.558Z,2.20
2018-10-05T14:26:25.625Z,2.80
2018-10-05T14:28:53.654Z,3.07
2018-10-05T14:31:21.720Z,2.13
2018-10-05T14:33:49.936Z,2.10
2018-10-05T14:36:17.954Z,2.80
2018-10-05T14:38:46.092Z,2.40
2018-10-05T14:41:14.188Z,2.30
2018-10-05T14:43:42.309Z,3.00
2018-10-05T14:46:10.423Z,2.57
2018-10-05T14:48:38.626Z,2.40
2018-10-05T14:51:06.870Z,2.37
2018-10-05T14:53:37.843Z,2.40
2018-10-05T14:56:05.889Z,2.13
2018-10-05T14:58:34.037Z,2.70
2018-10-05T15:01:02.090Z,2.40
2018-10-05T15:03:30.119Z,2.30
2018-10-05T15:06:02.791Z,2.47
2018-10-05T15:08:30.853Z,2.30
2018-10-05T15:10:58.928Z,2.50
2018-10-05T15:13:27.041Z,2.20
2018-10-05T15:15:55.233Z,2.37
2018-10-05T15:18:23.306Z,2.40
2018-10-05T15:20:51.433Z,2.00
2018-10-05T15:23:19.702Z,2.60
2018-10-05T15:25:47.769Z,2.00
2018-10-05T15:28:15.948Z,2.47
2018-10-05T15:30:44.042Z,2.30
2018-10-05T15:33:12.216Z,1.97
2018-10-05T15:35:40.386Z,2.20
2018-10-05T15:38:08.508Z,2.07
2018-10-05T15:40:36.657Z,2.10
2018-10-05T15:43:04.810Z,2.07
2018-10-05T15:45:32.948Z,1.90
2018-10-05T15:48:01.159Z,2.10
2018-10-05T15:50:29.257Z,2.30
2018-10-05T15:52:57.345Z,2.53
2018-10-05T15:55:26.253Z,2.10
2018-10-05T15:57:54.349Z,2.50
2018-10-05T16:00:25.510Z,2.97
2018-10-05T16:02:54.389Z,2.67
2018-10-05T16:05:23.382Z,2.87
2018-10-05T16:07:51.931Z,2.37
2018-10-05T16:10:20.982Z,2.40
2018-10-05T16:12:49.340Z,2.33
2018-10-05T16:15:17.470Z,2.00
2018-10-05T16:17:45.577Z,2.23
2018-10-05T16:20:13.698Z,2.20
2018-10-05T16:22:41.790Z,2.10
2018-10-05T16:25:10.094Z,2.20
2018-10-05T16:27:38.234Z,1.83
2018-10-05T16:30:07.295Z,1.90
2018-10-05T16:32:42.214Z,2.20
2018-10-05T16:35:10.567Z,2.30
2018-10-05T16:37:38.706Z,2.10
2018-10-05T16:40:06.791Z,2.47
2018-10-05T16:42:34.894Z,2.20
2018-10-05T16:45:03.166Z,2.40
2018-10-05T16:47:31.225Z,2.37
2018-10-05T16:49:59.752Z,2.20
2018-10-05T16:52:27.773Z,2.40
2018-10-05T16:54:55.862Z,2.67
2018-10-05T16:57:24.010Z,2.30
2018-10-05T16:59:51.989Z,2.10
2018-10-05T17:02:20.129Z,2.50
2018-10-05T17:04:48.282Z,3.13
2018-10-05T17:07:16.341Z,2.70
2018-10-05T17:09:44.666Z,2.73
2018-10-05T17:12:12.822Z,3.00
2018-10-05T17:14:40.829Z,3.13
2018-10-05T17:17:08.918Z,3.13
2018-10-05T17:19:37.260Z,2.70
2018-10-05T17:22:05.397Z,2.90
2018-10-05T17:24:33.463Z,3.27
2018-10-05T17:27:01.647Z,2.97
2018-10-05T17:29:29.799Z,3.43
2018-10-05T17:31:57.928Z,3.07
2018-10-05T17:34:25.978Z,2.97
2018-10-05T17:36:54.029Z,3.07
2018-10-05T17:39:22.147Z,2.83
2018-10-05T17:41:50.230Z,3.37
2018-10-05T17:44:18.437Z,3.17
2018-10-05T17:46:46.476Z,2.93
2018-10-05T17:49:14.650Z,2.83
2018-10-05T17:51:42.719Z,3.33
2018-10-05T17:54:10.785Z,2.90
2018-10-05T17:56:38.904Z,3.40
2018-10-05T17:59:06.998Z,2.83
2018-10-05T18:01:35.085Z,3.10
2018-10-05T18:04:03.195Z,3.00
2018-10-05T18:06:31.249Z,3.03
2018-10-05T18:08:59.333Z,2.83
2018-10-05T18:11:27.583Z,3.00
2018-10-05T18:13:55.627Z,2.80
2018-10-05T18:16:23.695Z,3.00
2018-10-05T18:18:51.729Z,3.20
2018-10-05T18:21:19.923Z,3.10
2018-10-05T18:23:48.009Z,2.80
2018-10-05T18:26:16.242Z,2.80
2018-10-05T18:28:44.183Z,3.33
2018-10-05T18:31:12.393Z,3.30
2018-10-05T18:33:40.729Z,4.80
2018-10-05T18:36:08.770Z,3.60
2018-10-05T18:38:36.892Z,5.10
2018-10-05T18:41:04.958Z,3.80
2018-10-05T18:43:33.042Z,3.87
2018-10-05T18:46:03.344Z,3.50
2018-10-05T18:48:31.490Z,3.63
2018-10-05T18:50:59.615Z,3.17
2018-10-05T18:53:27.678Z,3.33
2018-10-05T18:56:05.414Z,3.50
2018-10-05T18:58:33.581Z,3.47
2018-10-05T19:01:01.774Z,3.30
2018-10-05T19:03:29.865Z,3.47
2018-10-05T19:05:57.954Z,3.47
2018-10-05T19:08:26.326Z,2.97
2018-10-05T19:10:54.376Z,3.80
2018-10-05T19:13:22.440Z,3.50
2018-10-05T19:15:50.487Z,4.27
2018-10-05T19:18:18.587Z,4.13
2018-10-05T19:20:46.790Z,3.40
2018-10-05T19:23:15.037Z,4.33
2018-10-05T19:25:43.183Z,4.20
2018-10-05T19:28:11.237Z,4.50
2018-10-05T19:30:39.309Z,4.50
2018-10-05T19:33:07.432Z,4.27
2018-10-05T19:35:35.525Z,4.87
2018-10-05T19:38:03.739Z,4.53
2018-10-05T19:40:31.799Z,4.87
2018-10-05T19:42:59.954Z,4.53
2018-10-05T19:45:28.107Z,4.60
2018-10-05T19:47:56.150Z,5.17
2018-10-05T19:50:24.220Z,5.23
2018-10-05T19:52:52.301Z,4.60
2018-10-05T19:55:20.464Z,4.77
2018-10-05T19:57:48.627Z,3.90
2018-10-05T20:00:16.811Z,5.33
2018-10-05T20:02:44.935Z,4.60
2018-10-05T20:05:13.335Z,5.30
2018-10-05T20:07:41.441Z,5.13
2018-10-05T20:10:09.605Z,5.43
2018-10-05T20:12:37.698Z,5.10
2018-10-05T20:15:05.821Z,5.27
2018-10-05T20:17:33.948Z,5.73
2018-10-05T20:20:01.988Z,3.67
2018-10-05T20:22:30.127Z,6.60
2018-10-05T20:24:58.247Z,6.20
2018-10-05T20:27:29.246Z,5.33
2018-10-05T20:29:57.448Z,5.97
2018-10-05T20:32:25.671Z,4.80
2018-10-05T20:34:53.726Z,5.97
2018-10-05T20:37:29.787Z,5.90
2018-10-05T20:40:02.923Z,5.83
2018-10-05T20:42:37.384Z,5.90
2018-10-05T20:45:11.299Z,5.07
2018-10-05T20:47:46.930Z,5.57
2018-10-05T20:50:24.428Z,6.33
2018-10-05T20:52:53.775Z,7.23
2018-10-05T20:55:21.865Z,5.70
2018-10-05T20:57:50.125Z,5.70
2018-10-05T21:00:18.166Z,6.73
2018-10-05T21:02:46.977Z,6.13
2018-10-05T21:05:15.322Z,7.27
2018-10-05T21:07:43.792Z,5.40
2018-10-05T21:10:11.914Z,6.47
2018-10-05T21:12:40.146Z,7.43
2018-10-05T21:15:08.285Z,6.40
2018-10-05T21:17:36.367Z,5.63
2018-10-05T21:20:05.021Z,6.33
2018-10-05T21:22:33.094Z,4.27
2018-10-05T21:25:01.179Z,6.43
2018-10-05T21:27:29.321Z,6.77
2018-10-05T21:29:57.424Z,6.80
2018-10-05T21:32:25.482Z,6.70
2018-10-05T21:34:53.546Z,6.70
2018-10-05T21:37:21.636Z,5.77
2018-10-05T21:39:49.754Z,7.17
2018-10-05T21:42:18.113Z,6.17
2018-10-05T21:44:46.376Z,6.67
2018-10-05T21:47:14.429Z,5.63
2018-10-05T21:49:42.529Z,7.10
2018-10-05T21:52:10.677Z,5.13
2018-10-05T21:54:38.802Z,5.93
2018-10-05T21:57:06.897Z,6.57
2018-10-05T21:59:34.943Z,6.97
2018-10-05T22:02:03.101Z,6.33
2018-10-05T22:04:31.166Z,6.87
2018-10-05T22:06:59.241Z,6.83
2018-10-05T22:09:27.383Z,6.37
2018-10-05T22:11:55.473Z,7.50
2018-10-05T22:14:23.510Z,7.10
2018-10-05T22:16:51.569Z,6.23
2018-10-05T22:19:19.679Z,5.37
2018-10-05T22:21:47.707Z,7.17
2018-10-05T22:24:15.921Z,7.33
2018-10-05T22:26:44.004Z,6.93
2018-10-05T22:29:12.053Z,5.83
2018-10-05T22:31:40.103Z,8.13
2018-10-05T22:34:08.193Z,7.90
2018-10-05T22:36:36.272Z,8.90
2018-10-05T22:39:05.102Z,8.43
2018-10-05T22:41:33.337Z,4.57
2018-10-05T22:44:01.383Z,8.80
2018-10-05T22:46:29.455Z,7.90
2018-10-05T22:48:57.487Z,7.77
2018-10-05T22:51:32.248Z,5.83
2018-10-05T22:54:00.502Z,7.43
2018-10-05T22:56:28.514Z,8.60
2018-10-05T22:58:56.592Z,8.67
2018-10-05T23:01:24.691Z,9.10
2018-10-05T23:03:52.795Z,4.83
2018-10-05T23:06:20.829Z,8.13
2018-10-05T23:08:48.949Z,8.23
2018-10-05T23:11:17.229Z,6.73
2018-10-05T23:13:45.302Z,8.83
2018-10-05T23:16:13.465Z,7.67
2018-10-05T23:18:41.485Z,10.40
2018-10-05T23:21:09.595Z,8.00
2018-10-05T23:23:37.633Z,6.20
2018-10-05T23:26:05.849Z,7.17
2018-10-05T23:28:33.869Z,8.37
2018-10-05T23:31:02.067Z,9.00
2018-10-05T23:33:30.241Z,9.23
2018-10-05T23:35:58.575Z,6.37
2018-10-05T23:38:26.608Z,9.97
2018-10-05T23:40:54.680Z,10.30
2018-10-05T23:43:22.873Z,8.83
2018-10-05T23:45:50.920Z,8.30
2018-10-05T23:48:19.040Z,9.87
2018-10-05T23:50:47.119Z,9.80
2018-10-05T23:53:15.218Z,11.13
2018-10-05T23:55:43.345Z,9.80
2018-10-05T23:58:11.399Z,6.77
